createdAt,value
2018-08-25T00:01:34.882Z,18.60
2018-08-25T00:04:04.838Z,18.60
2018-08-25T00:06:34.165Z,18.60
2018-08-25T00:09:03.507Z,18.50
2018-08-25T00:11:32.737Z,18.40
2018-08-25T00:14:01.932Z,18.30
2018-08-25T00:16:31.131Z,18.30
2018-08-25T00:19:00.343Z,18.40
2018-08-25T00:21:29.535Z,18.50
2018-08-25T00:23:58.740Z,18.50
2018-08-25T00:26:28.187Z,18.40
2018-08-25T00:28:57.483Z,18.30
2018-08-25T00:31:26.729Z,18.40
2018-08-25T00:33:56.220Z,18.40
2018-08-25T00:36:25.443Z,18.40
2018-08-25T00:38:55.287Z,18.30
2018-08-25T00:41:24.531Z,18.30
2018-08-25T00:43:53.748Z,18.30
2018-08-25T00:46:24.291Z,18.20
2018-08-25T00:48:54.128Z,18.20
2018-08-25T00:51:23.348Z,18.30
2018-08-25T00:53:52.567Z,18.30
2018-08-25T00:56:22.327Z,18.30
2018-08-25T00:58:51.614Z,18.40
2018-08-25T01:01:20.814Z,18.40
2018-08-25T01:03:50.356Z,18.30
2018-08-25T01:06:19.602Z,18.30
2018-08-25T01:08:48.860Z,18.30
2018-08-25T01:11:18.287Z,18.30
2018-08-25T01:13:47.608Z,18.30
2018-08-25T01:16:16.801Z,18.30
2018-08-25T01:18:46.044Z,18.20
2018-08-25T01:21:15.295Z,18.20
2018-08-25T01:23:44.491Z,18.20
2018-08-25T01:26:13.731Z,18.10
2018-08-25T01:28:42.956Z,18.00
2018-08-25T01:31:12.180Z,18.00
2018-08-25T01:33:41.695Z,18.00
2018-08-25T01:36:11.236Z,18.00
2018-08-25T01:38:40.586Z,18.00
2018-08-25T01:41:10.060Z,17.90
2018-08-25T01:43:39.570Z,17.90
2018-08-25T01:46:08.767Z,18.00
2018-08-25T01:48:38.243Z,18.00
2018-08-25T01:51:07.423Z,17.90
2018-08-25T01:53:36.626Z,17.90
2018-08-25T01:56:06.271Z,17.80
2018-08-25T01:58:35.447Z,17.80
2018-08-25T02:01:04.704Z,17.70
2018-08-25T02:03:33.927Z,17.70
2018-08-25T02:06:03.108Z,17.70
2018-08-25T02:08:32.319Z,17.70
2018-08-25T02:11:01.581Z,17.60
2018-08-25T02:13:30.863Z,17.60
2018-08-25T02:16:00.107Z,17.60
2018-08-25T02:18:30.028Z,17.50
2018-08-25T02:20:59.208Z,17.40
2018-08-25T02:23:28.387Z,17.50
2018-08-25T02:25:57.606Z,17.40
2018-08-25T02:28:26.775Z,17.40
2018-08-25T02:30:55.947Z,17.40
2018-08-25T02:33:25.179Z,17.30
2018-08-25T02:35:54.363Z,17.30
2018-08-25T02:38:23.541Z,17.20
2018-08-25T02:40:53.120Z,17.30
2018-08-25T02:43:22.538Z,17.20
2018-08-25T02:45:51.724Z,17.30
2018-08-25T02:48:20.956Z,17.20
2018-08-25T02:50:50.139Z,17.20
2018-08-25T02:53:19.340Z,17.10
2018-08-25T02:55:48.567Z,17.10
2018-08-25T02:58:17.776Z,17.10
2018-08-25T03:00:46.975Z,17.00
2018-08-25T03:03:16.515Z,17.10
2018-08-25T03:05:45.718Z,17.10
2018-08-25T03:08:14.921Z,17.00
2018-08-25T03:10:44.113Z,17.00
2018-08-25T03:13:13.459Z,16.90
2018-08-25T03:15:42.668Z,17.00
2018-08-25T03:18:11.911Z,16.90
2018-08-25T03:20:41.083Z,16.90
2018-08-25T03:23:10.360Z,16.80
2018-08-25T03:25:41.864Z,16.80
2018-08-25T03:28:11.063Z,16.70
2018-08-25T03:30:40.255Z,16.90
2018-08-25T03:33:09.569Z,17.00
2018-08-25T03:35:38.811Z,16.90
2018-08-25T03:38:08.003Z,16.90
2018-08-25T03:40:37.220Z,16.90
2018-08-25T03:43:06.911Z,16.90
2018-08-25T03:45:36.504Z,17.10
2018-08-25T03:48:06.388Z,17.10
2018-08-25T03:50:35.582Z,17.10
2018-08-25T03:53:04.784Z,17.10
2018-08-25T03:55:34.309Z,17.20
2018-08-25T03:58:04.016Z,17.20
2018-08-25T04:00:33.205Z,17.10
2018-08-25T04:03:02.410Z,17.20
2018-08-25T04:05:31.588Z,17.20
2018-08-25T04:08:00.776Z,17.30
2018-08-25T04:10:30.717Z,17.30
2018-08-25T04:13:00.047Z,17.20
2018-08-25T04:15:29.224Z,17.10
2018-08-25T04:17:58.423Z,17.30
2018-08-25T04:20:27.599Z,17.30
2018-08-25T04:22:56.783Z,17.20
2018-08-25T04:25:25.992Z,17.20
2018-08-25T04:27:55.159Z,17.30
2018-08-25T04:30:24.475Z,17.20
2018-08-25T04:32:54.116Z,17.20
2018-08-25T04:35:23.318Z,17.10
2018-08-25T04:37:52.495Z,17.10
2018-08-25T04:40:21.703Z,17.00
2018-08-25T04:42:50.904Z,17.00
2018-08-25T04:45:20.079Z,16.90
2018-08-25T04:47:49.399Z,16.90
2018-08-25T04:50:18.594Z,16.80
2018-08-25T04:52:48.875Z,16.80
2018-08-25T04:55:18.429Z,16.70
2018-08-25T04:57:47.622Z,16.60
2018-08-25T05:00:16.807Z,16.60
2018-08-25T05:02:46.024Z,16.70
2018-08-25T05:05:15.384Z,16.70
2018-08-25T05:07:44.682Z,16.60
2018-08-25T05:10:13.837Z,16.50
2018-08-25T05:12:43.019Z,16.50
2018-08-25T05:15:12.205Z,16.40
2018-08-25T05:17:41.523Z,16.50
2018-08-25T05:20:10.702Z,16.50
2018-08-25T05:22:39.867Z,16.50
2018-08-25T05:25:09.352Z,16.50
2018-08-25T05:27:38.532Z,16.50
2018-08-25T05:30:08.206Z,16.50
2018-08-25T05:32:37.435Z,16.60
2018-08-25T05:35:06.960Z,16.70
2018-08-25T05:37:36.135Z,16.70
2018-08-25T05:40:05.760Z,16.70
2018-08-25T05:42:34.951Z,16.70
2018-08-25T05:45:04.503Z,16.60
2018-08-25T05:47:33.723Z,16.60
2018-08-25T05:50:03.459Z,16.60
2018-08-25T05:52:32.716Z,16.60
2018-08-25T05:55:01.927Z,16.70
2018-08-25T05:57:31.169Z,16.70
2018-08-25T06:00:00.308Z,16.80
2018-08-25T06:02:29.874Z,16.80
2018-08-25T06:04:59.051Z,17.00
2018-08-25T06:07:28.236Z,17.10
2018-08-25T06:09:57.469Z,17.20
2018-08-25T06:12:26.655Z,17.40
2018-08-25T06:14:55.836Z,17.40
2018-08-25T06:17:25.060Z,17.50
2018-08-25T06:19:54.244Z,17.70
2018-08-25T06:22:23.443Z,17.70
2018-08-25T06:24:53.048Z,17.80
2018-08-25T06:27:22.246Z,17.90
2018-08-25T06:29:51.536Z,17.90
2018-08-25T06:32:20.700Z,17.90
2018-08-25T06:34:50.165Z,18.00
2018-08-25T06:37:19.367Z,18.00
2018-08-25T06:39:48.572Z,18.00
2018-08-25T06:42:17.784Z,18.10
2018-08-25T06:44:46.987Z,18.20
2018-08-25T06:47:16.657Z,18.00
2018-08-25T06:49:45.844Z,18.10
2018-08-25T06:52:16.947Z,18.10
2018-08-25T06:54:46.143Z,18.30
2018-08-25T06:57:15.319Z,18.30
2018-08-25T06:59:44.581Z,18.30
2018-08-25T07:02:14.287Z,18.20
2018-08-25T07:04:43.487Z,18.40
2018-08-25T07:07:13.211Z,18.50
2018-08-25T07:09:42.403Z,18.50
2018-08-25T07:12:11.579Z,18.60
2018-08-25T07:14:41.103Z,18.60
2018-08-25T07:17:10.287Z,18.60
2018-08-25T07:19:39.463Z,18.70
2018-08-25T07:22:08.660Z,18.70
2018-08-25T07:24:37.840Z,18.70
2018-08-25T07:27:07.031Z,18.70
2018-08-25T07:29:36.911Z,18.60
2018-08-25T07:32:06.158Z,18.50
2018-08-25T07:34:35.604Z,18.60
2018-08-25T07:37:05.215Z,18.70
2018-08-25T07:39:34.427Z,18.60
2018-08-25T07:42:03.651Z,18.60
2018-08-25T07:44:32.844Z,18.70
2018-08-25T07:47:02.088Z,18.70
2018-08-25T07:49:31.322Z,18.80
2018-08-25T07:52:00.751Z,18.90
2018-08-25T07:54:30.360Z,18.90
2018-08-25T07:56:59.567Z,18.80
2018-08-25T07:59:28.767Z,18.90
2018-08-25T08:01:57.964Z,18.90
2018-08-25T08:04:27.195Z,18.90
2018-08-25T08:06:57.781Z,18.90
2018-08-25T08:09:28.228Z,18.90
2018-08-25T08:11:57.678Z,18.80
2018-08-25T08:14:27.108Z,18.80
2018-08-25T08:16:56.383Z,18.80
2018-08-25T08:19:25.659Z,18.70
2018-08-25T08:21:55.101Z,18.60
2018-08-25T08:24:24.375Z,18.60
2018-08-25T08:26:53.571Z,18.70
2018-08-25T08:29:22.785Z,18.60
2018-08-25T08:31:53.178Z,18.50
2018-08-25T08:34:24.771Z,18.50
2018-08-25T08:36:54.222Z,18.50
2018-08-25T08:39:23.575Z,18.50
2018-08-25T08:41:52.845Z,18.50
2018-08-25T08:44:22.123Z,18.50
2018-08-25T08:46:51.303Z,18.40
2018-08-25T08:49:20.544Z,18.50
2018-08-25T08:51:50.034Z,18.50
2018-08-25T08:54:21.743Z,18.40
2018-08-25T08:56:50.916Z,18.30
2018-08-25T08:59:20.120Z,18.30
2018-08-25T09:01:50.639Z,18.40
2018-08-25T09:04:19.836Z,18.30
2018-08-25T09:06:49.043Z,18.20
2018-08-25T09:09:18.524Z,18.10
2018-08-25T09:11:47.760Z,18.10
2018-08-25T09:14:16.923Z,18.10
2018-08-25T09:16:46.685Z,18.10
2018-08-25T09:19:15.887Z,18.10
2018-08-25T09:21:45.146Z,18.00
2018-08-25T09:24:14.639Z,17.90
2018-08-25T09:26:43.817Z,17.90
2018-08-25T09:29:13.268Z,17.80
2018-08-25T09:31:42.475Z,17.80
2018-08-25T09:34:11.644Z,17.80
2018-08-25T09:36:41.220Z,17.80
2018-08-25T09:39:12.239Z,17.80
2018-08-25T09:41:41.486Z,17.80
2018-08-25T09:44:10.864Z,17.80
2018-08-25T09:46:40.409Z,17.70
2018-08-25T09:49:09.602Z,17.80
2018-08-25T09:51:39.461Z,17.70
2018-08-25T09:54:08.788Z,17.70
2018-08-25T09:56:38.530Z,17.80
2018-08-25T09:59:07.812Z,17.90
2018-08-25T10:01:42.280Z,18.00
2018-08-25T10:04:11.507Z,18.20
2018-08-25T10:06:40.703Z,18.00
2018-08-25T10:09:10.019Z,17.90
2018-08-25T10:11:39.252Z,17.80
2018-08-25T10:14:08.414Z,17.80
2018-08-25T10:16:38.924Z,17.70
2018-08-25T10:19:08.116Z,17.60
2018-08-25T10:21:37.292Z,17.50
2018-08-25T10:24:06.727Z,17.30
2018-08-25T10:26:35.916Z,17.20
2018-08-25T10:29:05.336Z,17.20
2018-08-25T10:31:34.472Z,17.20
2018-08-25T10:34:03.696Z,17.10
2018-08-25T10:36:32.944Z,17.20
2018-08-25T10:39:02.200Z,17.10
2018-08-25T10:41:32.494Z,17.20
2018-08-25T10:44:01.696Z,17.40
2018-08-25T10:46:31.036Z,17.50
2018-08-25T10:49:00.696Z,17.70
2018-08-25T10:51:30.000Z,17.70
2018-08-25T10:54:00.258Z,17.80
2018-08-25T10:56:30.732Z,17.90
2018-08-25T10:58:59.958Z,18.00
2018-08-25T11:01:29.301Z,18.10
2018-08-25T11:03:58.706Z,18.10
2018-08-25T11:06:27.919Z,18.30
2018-08-25T11:08:57.431Z,18.50
2018-08-25T11:11:26.611Z,18.50
2018-08-25T11:13:55.808Z,18.60
2018-08-25T11:16:25.259Z,18.70
2018-08-25T11:18:54.470Z,18.80
2018-08-25T11:21:23.771Z,18.90
2018-08-25T11:23:52.988Z,19.00
2018-08-25T11:26:24.308Z,19.00
2018-08-25T11:28:53.495Z,19.00
2018-08-25T11:31:24.139Z,19.00
2018-08-25T11:33:53.342Z,19.00
2018-08-25T11:36:22.719Z,18.90
2018-08-25T11:38:52.043Z,18.90
2018-08-25T11:41:21.516Z,19.20
2018-08-25T11:43:50.722Z,19.30
2018-08-25T11:46:19.913Z,19.40
2018-08-25T11:48:49.136Z,19.60
2018-08-25T11:51:20.567Z,19.60
2018-08-25T11:53:49.837Z,19.80
2018-08-25T11:56:19.191Z,20.00
2018-08-25T11:58:48.679Z,20.10
2018-08-25T12:01:18.084Z,20.20
2018-08-25T12:03:49.523Z,20.20
2018-08-25T12:06:21.256Z,20.20
2018-08-25T12:08:50.612Z,20.20
2018-08-25T12:11:19.907Z,20.10
2018-08-25T12:13:49.339Z,19.90
2018-08-25T12:16:19.054Z,19.80
2018-08-25T12:18:48.237Z,19.70
2018-08-25T12:21:17.456Z,19.60
2018-08-25T12:23:46.737Z,19.60
2018-08-25T12:26:17.006Z,19.60
2018-08-25T12:28:48.434Z,19.60
2018-08-25T12:31:18.202Z,19.70
2018-08-25T12:33:48.000Z,19.80
2018-08-25T12:36:18.244Z,19.80
2018-08-25T12:38:48.320Z,20.00
2018-08-25T12:41:18.459Z,20.10
2018-08-25T12:43:48.873Z,20.30
2018-08-25T12:46:18.912Z,20.30
2018-08-25T12:48:48.426Z,20.30
2018-08-25T12:51:17.823Z,20.10
2018-08-25T12:53:47.231Z,20.20
2018-08-25T12:56:16.820Z,20.50
2018-08-25T12:58:46.239Z,20.70
2018-08-25T13:01:15.790Z,21.10
2018-08-25T13:03:45.055Z,21.70
2018-08-25T13:06:14.411Z,22.40
2018-08-25T13:08:43.653Z,22.80
2018-08-25T13:11:13.064Z,22.60
2018-08-25T13:13:42.583Z,22.30
2018-08-25T13:16:11.864Z,21.90
2018-08-25T13:18:41.171Z,21.70
2018-08-25T13:21:11.971Z,21.70
2018-08-25T13:23:41.315Z,22.30
2018-08-25T13:26:11.114Z,23.10
2018-08-25T13:28:41.588Z,23.40
2018-08-25T13:31:12.602Z,23.70
2018-08-25T13:33:42.536Z,23.40
2018-08-25T13:36:11.715Z,22.80
2018-08-25T13:38:40.898Z,22.20
2018-08-25T13:41:10.584Z,21.80
2018-08-25T13:43:39.961Z,21.60
2018-08-25T13:46:09.211Z,21.40
2018-08-25T13:48:38.422Z,21.20
2018-08-25T13:51:08.019Z,20.90
2018-08-25T13:53:37.200Z,20.80
2018-08-25T13:56:08.702Z,20.60
2018-08-25T13:58:37.897Z,20.40
2018-08-25T14:01:07.292Z,20.30
2018-08-25T14:03:36.671Z,20.20
2018-08-25T14:06:06.176Z,19.90
2018-08-25T14:08:35.381Z,19.60
2018-08-25T14:11:04.575Z,19.30
2018-08-25T14:13:34.095Z,19.10
2018-08-25T14:16:04.810Z,19.10
2018-08-25T14:18:34.223Z,19.20
2018-08-25T14:21:04.557Z,19.40
2018-08-25T14:23:34.020Z,19.80
2018-08-25T14:26:03.456Z,21.50
2018-08-25T14:28:33.929Z,23.10
2018-08-25T14:31:03.556Z,23.40
2018-08-25T14:33:33.040Z,23.80
2018-08-25T14:36:06.571Z,24.40
2018-08-25T14:38:36.087Z,23.90
2018-08-25T14:41:05.600Z,24.00
2018-08-25T14:43:34.883Z,24.00
2018-08-25T14:46:04.355Z,23.50
2018-08-25T14:48:33.828Z,24.50
2018-08-25T14:51:03.128Z,25.80
2018-08-25T14:53:32.455Z,26.40
2018-08-25T14:56:02.952Z,26.00
2018-08-25T14:58:33.183Z,25.90
2018-08-25T15:01:03.696Z,25.80
2018-08-25T15:03:35.230Z,25.50
2018-08-25T15:06:04.751Z,24.80
2018-08-25T15:08:36.224Z,24.10
2018-08-25T15:11:06.795Z,23.60
2018-08-25T15:13:35.990Z,23.60
2018-08-25T15:16:05.411Z,24.80
2018-08-25T15:18:34.635Z,25.30
2018-08-25T15:21:03.839Z,25.20
2018-08-25T15:23:34.267Z,25.60
2018-08-25T15:26:04.482Z,25.60
2018-08-25T15:28:34.120Z,25.20
2018-08-25T15:31:03.709Z,24.80
2018-08-25T15:33:33.312Z,24.20
2018-08-25T15:36:03.735Z,23.70
2018-08-25T15:38:33.083Z,23.40
2018-08-25T15:41:03.564Z,23.20
2018-08-25T15:43:35.575Z,22.90
2018-08-25T15:46:05.276Z,22.60
2018-08-25T15:48:34.496Z,22.40
2018-08-25T15:51:04.240Z,22.20
2018-08-25T15:53:34.099Z,22.20
2018-08-25T15:56:04.943Z,22.10
2018-08-25T15:58:34.171Z,22.10
2018-08-25T16:01:03.509Z,22.10
2018-08-25T16:03:33.808Z,22.20
2018-08-25T16:06:04.460Z,22.00
2018-08-25T16:08:33.895Z,21.90
2018-08-25T16:11:03.240Z,22.00
2018-08-25T16:13:32.418Z,21.90
2018-08-25T16:16:01.795Z,21.90
2018-08-25T16:18:31.083Z,21.90
2018-08-25T16:21:04.677Z,21.80
2018-08-25T16:23:33.908Z,22.00
2018-08-25T16:26:03.409Z,22.10
2018-08-25T16:28:32.619Z,22.10
2018-08-25T16:31:01.920Z,21.90
2018-08-25T16:33:32.487Z,21.70
2018-08-25T16:36:02.935Z,21.60
2018-08-25T16:38:32.216Z,22.10
2018-08-25T16:41:01.521Z,22.60
2018-08-25T16:43:30.952Z,23.20
2018-08-25T16:46:00.155Z,23.50
2018-08-25T16:48:30.701Z,23.80
2018-08-25T16:50:59.971Z,24.00
2018-08-25T16:53:29.271Z,24.30
2018-08-25T16:55:58.650Z,24.60
2018-08-25T16:58:31.947Z,24.70
2018-08-25T17:01:01.765Z,24.60
2018-08-25T17:03:31.100Z,24.70
2018-08-25T17:06:00.427Z,24.60
2018-08-25T17:08:29.655Z,24.70
2018-08-25T17:11:02.979Z,24.70
2018-08-25T17:13:32.262Z,24.60
2018-08-25T17:16:04.364Z,24.50
2018-08-25T17:18:33.663Z,24.40
2018-08-25T17:21:03.003Z,24.20
2018-08-25T17:23:32.288Z,23.60
2018-08-25T17:26:02.750Z,22.90
2018-08-25T17:28:34.248Z,22.30
2018-08-25T17:31:05.036Z,21.90
2018-08-25T17:33:35.468Z,21.60
2018-08-25T17:36:05.151Z,21.30
2018-08-25T17:38:36.708Z,21.10
2018-08-25T17:41:05.972Z,20.90
2018-08-25T17:43:36.548Z,20.80
2018-08-25T17:46:05.811Z,20.60
2018-08-25T17:48:36.284Z,20.50
2018-08-25T17:51:08.075Z,20.30
2018-08-25T17:53:39.504Z,20.30
2018-08-25T17:56:08.928Z,20.10
2018-08-25T17:58:38.435Z,20.10
2018-08-25T18:01:08.660Z,20.00
2018-08-25T18:03:37.975Z,19.80
2018-08-25T18:06:08.488Z,19.70
2018-08-25T18:08:38.700Z,19.60
2018-08-25T18:11:08.354Z,19.60
2018-08-25T18:13:39.746Z,19.40
2018-08-25T18:16:08.941Z,19.40
2018-08-25T18:18:38.115Z,19.30
2018-08-25T18:21:07.337Z,19.20
2018-08-25T18:23:36.664Z,19.10
2018-08-25T18:26:07.063Z,19.00
2018-08-25T18:28:36.480Z,18.90
2018-08-25T18:31:05.863Z,19.00
2018-08-25T18:33:36.456Z,19.00
2018-08-25T18:36:05.983Z,18.80
2018-08-25T18:38:36.476Z,18.60
2018-08-25T18:41:05.821Z,18.50
2018-08-25T18:43:35.124Z,18.30
2018-08-25T18:46:05.755Z,18.20
2018-08-25T18:48:35.220Z,18.10
2018-08-25T18:51:04.523Z,18.00
2018-08-25T18:53:35.600Z,18.00
2018-08-25T18:56:05.316Z,17.90
2018-08-25T18:58:34.589Z,17.80
2018-08-25T19:01:04.235Z,17.70
2018-08-25T19:03:34.687Z,17.70
2018-08-25T19:06:03.952Z,17.60
2018-08-25T19:08:33.347Z,17.60
2018-08-25T19:11:03.871Z,17.50
2018-08-25T19:13:33.095Z,17.50
2018-08-25T19:16:02.671Z,17.40
2018-08-25T19:18:32.407Z,17.40
2018-08-25T19:21:05.955Z,17.30
2018-08-25T19:23:35.508Z,17.30
2018-08-25T19:26:07.075Z,17.20
2018-08-25T19:28:36.844Z,17.20
2018-08-25T19:31:06.223Z,17.20
2018-08-25T19:33:36.823Z,17.20
2018-08-25T19:36:06.032Z,17.10
2018-08-25T19:38:35.241Z,17.10
2018-08-25T19:41:04.506Z,17.10
2018-08-25T19:43:33.939Z,17.10
2018-08-25T19:46:03.259Z,17.10
2018-08-25T19:48:34.101Z,17.00
2018-08-25T19:51:03.411Z,17.00
2018-08-25T19:53:32.636Z,16.90
2018-08-25T19:56:02.260Z,16.80
2018-08-25T19:58:31.499Z,16.80
2018-08-25T20:01:02.759Z,16.70
2018-08-25T20:03:31.991Z,16.70
2018-08-25T20:06:01.175Z,16.60
2018-08-25T20:08:31.645Z,16.60
2018-08-25T20:11:01.196Z,16.50
2018-08-25T20:13:31.743Z,16.60
2018-08-25T20:16:00.941Z,16.60
2018-08-25T20:18:30.387Z,16.60
2018-08-25T20:21:00.982Z,16.60
2018-08-25T20:23:30.139Z,16.50
2018-08-25T20:25:59.327Z,16.40
2018-08-25T20:28:28.714Z,16.30
2018-08-25T20:30:58.051Z,16.30
2018-08-25T20:33:28.592Z,16.20
2018-08-25T20:35:58.160Z,16.20
2018-08-25T20:38:27.548Z,16.10
2018-08-25T20:40:57.344Z,16.10
2018-08-25T20:43:26.532Z,16.00
2018-08-25T20:45:56.057Z,16.00
2018-08-25T20:48:25.409Z,15.90
2018-08-25T20:50:55.288Z,16.00
2018-08-25T20:53:25.021Z,16.00
2018-08-25T20:55:55.395Z,15.90
2018-08-25T20:58:24.623Z,15.80
2018-08-25T21:00:56.475Z,15.80
2018-08-25T21:03:25.755Z,15.70
2018-08-25T21:05:54.931Z,15.70
2018-08-25T21:08:24.325Z,15.70
2018-08-25T21:10:53.883Z,15.80
2018-08-25T21:13:23.472Z,15.80
2018-08-25T21:15:52.865Z,15.80
2018-08-25T21:18:25.315Z,15.80
2018-08-25T21:20:55.324Z,15.70
2018-08-25T21:23:24.591Z,15.60
2018-08-25T21:25:53.795Z,15.70
2018-08-25T21:28:23.036Z,15.60
2018-08-25T21:30:52.342Z,15.50
2018-08-25T21:33:21.675Z,15.40
2018-08-25T21:35:51.159Z,15.30
2018-08-25T21:38:20.834Z,15.20
2018-08-25T21:40:50.136Z,15.20
2018-08-25T21:43:19.439Z,15.30
2018-08-25T21:45:48.715Z,15.50
2018-08-25T21:48:18.049Z,15.50
2018-08-25T21:50:48.614Z,15.50
2018-08-25T21:53:17.805Z,15.40
2018-08-25T21:55:47.004Z,15.40
2018-08-25T21:58:16.311Z,15.40
2018-08-25T22:00:50.877Z,15.40
2018-08-25T22:03:20.332Z,15.40
2018-08-25T22:05:49.995Z,15.40
2018-08-25T22:08:19.201Z,15.30
2018-08-25T22:10:49.639Z,15.10
2018-08-25T22:13:18.823Z,15.00
2018-08-25T22:15:48.291Z,14.90
2018-08-25T22:18:18.750Z,14.80
2018-08-25T22:20:48.684Z,14.70
2018-08-25T22:23:17.871Z,14.70
2018-08-25T22:25:47.643Z,14.60
2018-08-25T22:28:16.828Z,14.60
2018-08-25T22:30:46.023Z,14.50
2018-08-25T22:33:15.504Z,14.40
2018-08-25T22:35:44.715Z,14.40
2018-08-25T22:38:13.908Z,14.40
2018-08-25T22:40:43.103Z,14.30
2018-08-25T22:43:12.310Z,14.30
2018-08-25T22:45:41.547Z,14.30
2018-08-25T22:48:11.026Z,14.30
2018-08-25T22:50:40.230Z,14.30
2018-08-25T22:53:09.656Z,14.30
2018-08-25T22:55:38.886Z,14.30
2018-08-25T22:58:08.131Z,14.30
2018-08-25T23:00:37.392Z,14.30
2018-08-25T23:03:06.959Z,14.20
2018-08-25T23:05:36.204Z,14.20
2018-08-25T23:08:06.424Z,14.20
2018-08-25T23:10:35.960Z,14.20
2018-08-25T23:13:05.427Z,14.20
2018-08-25T23:15:34.620Z,14.20
2018-08-25T23:18:03.879Z,14.20
2018-08-25T23:20:33.064Z,14.20
2018-08-25T23:23:02.256Z,14.10
2018-08-25T23:25:31.472Z,14.10
2018-08-25T23:28:00.691Z,14.00
2018-08-25T23:30:29.963Z,14.00
2018-08-25T23:32:59.361Z,14.00
2018-08-25T23:35:28.778Z,14.00
2018-08-25T23:37:58.036Z,14.00
2018-08-25T23:40:27.271Z,14.00
2018-08-25T23:42:56.462Z,14.00
2018-08-25T23:45:25.655Z,14.00
2018-08-25T23:47:54.873Z,14.00
2018-08-25T23:50:24.240Z,13.90
2018-08-25T23:52:53.453Z,13.90
2018-08-25T23:55:23.086Z,13.80
2018-08-25T23:57:52.273Z,13.70
